createdAt,value
2023-02-13T00:00:25.676Z,12.98
2023-02-13T00:02:53.426Z,16.25
2023-02-13T00:05:21.199Z,11.63
2023-02-13T00:07:48.933Z,16.10
2023-02-13T00:10:16.784Z,13.43
2023-02-13T00:12:44.593Z,12.60
2023-02-13T00:15:12.387Z,14.93
2023-02-13T00:17:40.186Z,13.63
2023-02-13T00:20:09.374Z,14.63
2023-02-13T00:22:38.028Z,14.45
2023-02-13T00:25:06.616Z,12.50
2023-02-13T00:27:34.633Z,11.88
2023-02-13T00:30:03.286Z,13.48
2023-02-13T00:32:31.904Z,15.18
2023-02-13T00:34:59.715Z,14.07
2023-02-13T00:37:27.657Z,12.98
2023-02-13T00:39:56.270Z,12.27
2023-02-13T00:42:26.537Z,9.95
2023-02-13T00:44:54.710Z,10.88
2023-02-13T00:47:24.187Z,12.63
2023-02-13T00:49:51.966Z,14.00
2023-02-13T00:52:19.776Z,12.23
2023-02-13T00:54:47.810Z,12.23
2023-02-13T00:57:15.632Z,12.63
2023-02-13T00:59:44.068Z,11.32
2023-02-13T01:02:11.884Z,13.80
2023-02-13T01:04:40.718Z,14.63
2023-02-13T01:07:08.508Z,15.77
2023-02-13T01:09:36.325Z,15.50
2023-02-13T01:12:04.230Z,19.60
2023-02-13T01:14:32.040Z,19.63
2023-02-13T01:16:59.795Z,26.92
2023-02-13T01:19:28.170Z,32.55
2023-02-13T01:21:55.934Z,31.52
2023-02-13T01:24:23.757Z,37.33
2023-02-13T01:26:51.542Z,28.83
2023-02-13T01:29:22.099Z,24.35
2023-02-13T01:31:50.005Z,37.25
2023-02-13T01:34:19.195Z,41.10
2023-02-13T01:36:47.031Z,42.58
2023-02-13T01:39:18.021Z,40.78
2023-02-13T01:41:45.900Z,43.25
2023-02-13T01:44:35.447Z,38.08
2023-02-13T01:47:03.318Z,42.13
2023-02-13T01:49:31.229Z,42.30
2023-02-13T01:51:59.004Z,41.78
2023-02-13T01:54:31.222Z,47.67
2023-02-13T01:57:03.991Z,41.60
2023-02-13T01:59:34.212Z,46.55
2023-02-13T02:02:02.095Z,39.53
2023-02-13T02:04:34.572Z,31.65
2023-02-13T02:07:09.330Z,34.53
2023-02-13T02:09:39.520Z,29.67
2023-02-13T02:12:07.845Z,27.83
2023-02-13T02:14:39.594Z,30.23
2023-02-13T02:17:12.765Z,37.42
2023-02-13T02:19:49.819Z,35.38
2023-02-13T02:22:26.873Z,38.00
2023-02-13T02:24:54.839Z,42.15
2023-02-13T02:27:22.787Z,36.20
2023-02-13T02:30:12.577Z,43.20
2023-02-13T02:32:47.500Z,40.97
2023-02-13T02:35:18.385Z,45.72
2023-02-13T02:37:49.261Z,47.05
2023-02-13T02:40:17.012Z,45.42
2023-02-13T02:43:06.717Z,52.28
2023-02-13T02:45:48.696Z,79.60
2023-02-13T02:49:02.903Z,86.75
2023-02-13T02:51:40.392Z,93.72
2023-02-13T02:54:45.276Z,96.13
2023-02-13T02:57:19.493Z,90.90
2023-02-13T03:00:13.475Z,90.90
2023-02-13T03:02:59.973Z,91.85
2023-02-13T03:05:52.526Z,83.53
2023-02-13T03:08:40.353Z,85.53
2023-02-13T03:11:27.477Z,91.68
2023-02-13T03:13:55.451Z,95.10
2023-02-13T03:16:44.400Z,106.50
2023-02-13T03:19:45.777Z,90.05
2023-02-13T03:22:29.451Z,91.95
2023-02-13T03:25:18.624Z,91.80
2023-02-13T03:28:05.112Z,84.00
2023-02-13T03:30:33.017Z,72.53
2023-02-13T03:33:06.654Z,86.03
2023-02-13T03:36:09.247Z,69.78
2023-02-13T03:38:37.028Z,73.45
2023-02-13T03:41:21.121Z,71.93
2023-02-13T03:43:56.121Z,71.53
2023-02-13T03:46:25.353Z,70.43
2023-02-13T03:49:12.696Z,79.38
2023-02-13T03:51:46.416Z,67.07
2023-02-13T03:54:16.997Z,61.08
2023-02-13T03:57:04.185Z,60.30
2023-02-13T03:59:34.704Z,57.35
2023-02-13T04:02:08.204Z,64.60
2023-02-13T04:04:36.052Z,49.05
2023-02-13T04:07:05.592Z,51.78
2023-02-13T04:09:35.614Z,50.03
2023-02-13T04:12:10.851Z,48.00
2023-02-13T04:14:44.538Z,42.60
2023-02-13T04:17:14.744Z,44.67
2023-02-13T04:19:42.781Z,42.97
2023-02-13T04:22:12.838Z,43.15
2023-02-13T04:24:40.714Z,44.00
2023-02-13T04:27:08.728Z,52.33
2023-02-13T04:29:36.508Z,41.22
2023-02-13T04:32:05.660Z,40.08
2023-02-13T04:34:33.545Z,41.90
2023-02-13T04:37:01.304Z,37.35
2023-02-13T04:39:29.144Z,47.55
2023-02-13T04:41:56.917Z,61.88
2023-02-13T04:44:24.804Z,64.05
2023-02-13T04:46:52.601Z,62.75
2023-02-13T04:49:20.374Z,61.90
2023-02-13T04:51:48.177Z,79.35
2023-02-13T04:54:15.968Z,88.70
2023-02-13T04:56:43.765Z,94.60
2023-02-13T04:59:11.521Z,78.00
2023-02-13T05:01:39.430Z,89.47
2023-02-13T05:04:07.342Z,75.25
2023-02-13T05:06:35.152Z,70.30
2023-02-13T05:09:02.935Z,69.22
2023-02-13T05:11:30.727Z,64.35
2023-02-13T05:13:58.598Z,71.05
2023-02-13T05:16:26.426Z,68.75
2023-02-13T05:18:55.085Z,67.00
2023-02-13T05:21:41.502Z,52.95
2023-02-13T05:24:09.317Z,51.00
2023-02-13T05:26:37.192Z,54.15
2023-02-13T05:29:20.406Z,58.78
2023-02-13T05:31:48.959Z,59.58
2023-02-13T05:34:17.110Z,60.88
2023-02-13T05:36:44.884Z,61.60
2023-02-13T05:39:13.012Z,60.28
2023-02-13T05:41:40.816Z,59.55
2023-02-13T05:44:08.896Z,56.58
2023-02-13T05:46:39.419Z,53.58
2023-02-13T05:49:07.905Z,63.45
2023-02-13T05:51:35.705Z,63.30
2023-02-13T05:54:03.813Z,59.78
2023-02-13T05:56:31.695Z,56.67
2023-02-13T05:58:59.610Z,56.30
2023-02-13T06:01:27.397Z,65.22
2023-02-13T06:03:57.137Z,55.38
2023-02-13T06:06:26.279Z,62.88
2023-02-13T06:08:54.099Z,64.80
2023-02-13T06:11:21.917Z,105.78
2023-02-13T06:13:51.892Z,108.30
2023-02-13T06:16:19.728Z,149.90
2023-02-13T06:18:47.612Z,92.47
2023-02-13T06:21:15.439Z,96.32
2023-02-13T06:23:43.252Z,129.90
2023-02-13T06:26:11.051Z,115.15
2023-02-13T06:28:38.931Z,100.68
2023-02-13T06:31:06.905Z,111.90
2023-02-13T06:33:34.830Z,124.53
2023-02-13T06:36:02.832Z,123.57
2023-02-13T06:38:32.807Z,120.47
2023-02-13T06:41:04.538Z,118.38
2023-02-13T06:43:32.363Z,125.88
2023-02-13T06:46:00.393Z,128.00
2023-02-13T06:48:28.328Z,113.35
2023-02-13T06:50:56.338Z,98.25
2023-02-13T06:53:25.731Z,104.32
2023-02-13T06:55:53.648Z,107.15
2023-02-13T06:58:22.209Z,97.20
2023-02-13T07:00:50.549Z,95.80
2023-02-13T07:03:18.492Z,105.70
2023-02-13T07:05:52.019Z,89.35
2023-02-13T07:08:20.196Z,92.30
2023-02-13T07:10:48.038Z,85.88
2023-02-13T07:13:15.803Z,108.00
2023-02-13T07:15:43.651Z,101.00
2023-02-13T07:18:11.429Z,96.57
2023-02-13T07:20:39.284Z,87.25
2023-02-13T07:23:07.760Z,84.80
2023-02-13T07:25:35.649Z,88.68
2023-02-13T07:28:04.687Z,60.50
2023-02-13T07:30:33.135Z,50.33
2023-02-13T07:33:01.823Z,59.10
2023-02-13T07:35:29.672Z,50.58
2023-02-13T07:37:57.502Z,44.75
2023-02-13T07:40:25.308Z,48.30
2023-02-13T07:42:53.106Z,43.05
2023-02-13T07:45:20.962Z,44.85
2023-02-13T07:47:48.796Z,45.38
2023-02-13T07:50:16.684Z,41.72
2023-02-13T07:52:44.495Z,47.13
2023-02-13T07:55:12.307Z,39.50
2023-02-13T07:57:40.150Z,38.13
2023-02-13T08:00:08.271Z,37.25
2023-02-13T08:02:42.529Z,31.13
2023-02-13T08:05:10.310Z,27.92
2023-02-13T08:07:38.179Z,31.45
2023-02-13T08:10:26.959Z,30.45
2023-02-13T08:12:55.211Z,30.40
2023-02-13T08:15:23.906Z,38.00
2023-02-13T08:17:55.143Z,33.08
2023-02-13T08:20:24.124Z,33.97
2023-02-13T08:22:51.991Z,33.17
2023-02-13T08:25:19.887Z,34.22
2023-02-13T08:27:49.960Z,40.70
2023-02-13T08:30:17.859Z,37.70
2023-02-13T08:32:54.277Z,36.72
2023-02-13T08:35:23.986Z,36.03
2023-02-13T08:37:52.127Z,34.17
2023-02-13T08:40:24.497Z,37.50
2023-02-13T08:42:54.087Z,39.80
2023-02-13T08:45:22.445Z,35.50
2023-02-13T08:47:50.249Z,35.92
2023-02-13T08:50:18.250Z,34.33
2023-02-13T08:52:46.156Z,36.03
2023-02-13T08:55:13.937Z,37.13
2023-02-13T08:57:41.730Z,42.95
2023-02-13T09:00:09.795Z,27.27
2023-02-13T09:02:38.802Z,24.50
2023-02-13T09:05:06.818Z,29.38
2023-02-13T09:07:34.648Z,28.10
2023-02-13T09:10:03.110Z,29.13
2023-02-13T09:12:30.873Z,28.23
2023-02-13T09:14:58.939Z,27.48
2023-02-13T09:17:26.799Z,23.73
2023-02-13T09:19:54.599Z,23.75
2023-02-13T09:22:22.386Z,29.83
2023-02-13T09:24:50.151Z,34.67
2023-02-13T09:27:17.938Z,29.63
2023-02-13T09:29:45.796Z,23.65
2023-02-13T09:32:13.783Z,24.27
2023-02-13T09:34:41.805Z,24.67
2023-02-13T09:37:09.700Z,22.73
2023-02-13T09:39:37.538Z,28.35
2023-02-13T09:42:07.517Z,24.98
2023-02-13T09:44:43.373Z,26.27
2023-02-13T09:47:16.958Z,29.85
2023-02-13T09:49:50.862Z,24.23
2023-02-13T09:52:18.656Z,24.95
2023-02-13T09:54:46.457Z,27.85
2023-02-13T09:57:23.343Z,27.65
2023-02-13T09:59:57.011Z,27.00
2023-02-13T10:02:58.417Z,29.17
2023-02-13T10:05:43.010Z,26.80
2023-02-13T10:08:22.947Z,30.13
2023-02-13T10:11:05.731Z,29.35
2023-02-13T10:13:36.296Z,29.40
2023-02-13T10:16:08.552Z,27.00
2023-02-13T10:18:51.716Z,28.90
2023-02-13T10:21:25.338Z,31.33
2023-02-13T10:24:02.522Z,27.42
2023-02-13T10:26:49.148Z,26.67
2023-02-13T10:29:39.636Z,24.42
2023-02-13T10:32:09.972Z,30.70
2023-02-13T10:34:43.665Z,26.90
2023-02-13T10:37:19.571Z,34.70
2023-02-13T10:39:51.440Z,31.63
2023-02-13T10:42:20.126Z,30.95
2023-02-13T10:44:50.682Z,30.52
2023-02-13T10:47:25.219Z,28.42
2023-02-13T10:50:01.326Z,30.48
2023-02-13T10:52:37.330Z,30.10
2023-02-13T10:55:18.252Z,31.77
2023-02-13T10:58:04.722Z,36.53
2023-02-13T11:00:32.640Z,31.67
2023-02-13T11:03:00.838Z,31.92
2023-02-13T11:05:47.158Z,28.60
2023-02-13T11:08:18.327Z,25.83
2023-02-13T11:10:49.813Z,33.20
2023-02-13T11:13:19.900Z,28.73
2023-02-13T11:16:00.563Z,25.98
2023-02-13T11:18:29.975Z,28.02
2023-02-13T11:21:02.984Z,31.00
2023-02-13T11:23:30.882Z,28.17
2023-02-13T11:26:03.565Z,25.10
2023-02-13T11:28:35.350Z,28.67
2023-02-13T11:31:11.900Z,22.73
2023-02-13T11:33:40.982Z,29.85
2023-02-13T11:36:16.587Z,28.50
2023-02-13T11:38:44.712Z,27.77
2023-02-13T11:41:14.461Z,19.45
2023-02-13T11:43:52.291Z,21.10
2023-02-13T11:46:20.541Z,18.08
2023-02-13T11:48:57.616Z,17.30
2023-02-13T11:51:39.550Z,20.55
2023-02-13T11:54:08.003Z,17.02
2023-02-13T11:57:03.224Z,17.33
2023-02-13T11:59:33.805Z,23.05
2023-02-13T12:02:13.697Z,22.58
2023-02-13T12:04:42.809Z,26.60
2023-02-13T12:07:15.863Z,24.67
2023-02-13T12:09:45.148Z,25.90
2023-02-13T12:12:19.013Z,23.88
2023-02-13T12:14:47.156Z,19.00
2023-02-13T12:17:30.842Z,21.77
2023-02-13T12:19:59.487Z,22.80
2023-02-13T12:22:40.009Z,24.30
2023-02-13T12:25:35.296Z,20.00
2023-02-13T12:28:14.260Z,21.90
2023-02-13T12:30:44.956Z,21.77
2023-02-13T12:33:23.320Z,19.13
2023-02-13T12:35:51.081Z,20.73
2023-02-13T12:38:31.970Z,21.95
2023-02-13T12:41:08.251Z,25.38
2023-02-13T12:43:45.307Z,31.52
2023-02-13T12:46:13.219Z,27.13
2023-02-13T12:48:59.645Z,29.02
2023-02-13T12:51:36.353Z,31.52
2023-02-13T12:54:07.224Z,35.35
2023-02-13T12:56:51.464Z,37.55
2023-02-13T12:59:31.362Z,32.58
2023-02-13T13:02:22.070Z,30.52
2023-02-13T13:04:54.808Z,32.60
2023-02-13T13:07:25.775Z,33.03
2023-02-13T13:09:56.609Z,33.53
2023-02-13T13:12:30.519Z,29.45
2023-02-13T13:14:58.295Z,30.77
2023-02-13T13:17:37.310Z,28.92
2023-02-13T13:20:05.143Z,35.88
2023-02-13T13:22:35.486Z,29.98
2023-02-13T13:25:12.297Z,33.65
2023-02-13T13:27:54.376Z,31.20
2023-02-13T13:30:25.406Z,28.85
2023-02-13T13:32:57.138Z,26.10
2023-02-13T13:35:26.279Z,28.27
2023-02-13T13:38:02.522Z,32.42
2023-02-13T13:40:38.183Z,28.13
2023-02-13T13:43:14.824Z,29.50
2023-02-13T13:45:42.721Z,25.30
2023-02-13T13:48:29.070Z,27.77
2023-02-13T13:50:57.228Z,29.25
2023-02-13T13:53:25.646Z,28.00
2023-02-13T13:55:54.050Z,29.05
2023-02-13T13:58:26.349Z,33.42
2023-02-13T14:01:12.549Z,31.70
2023-02-13T14:03:40.416Z,36.35
2023-02-13T14:06:09.610Z,34.90
2023-02-13T14:08:40.396Z,26.85
2023-02-13T14:11:27.009Z,32.58
2023-02-13T14:13:54.902Z,28.58
2023-02-13T14:16:37.667Z,28.55
2023-02-13T14:19:05.864Z,27.73
2023-02-13T14:21:36.279Z,28.13
2023-02-13T14:24:11.478Z,29.92
2023-02-13T14:26:41.218Z,28.63
2023-02-13T14:29:11.788Z,34.05
2023-02-13T14:31:44.051Z,22.65
2023-02-13T14:34:11.941Z,27.85
2023-02-13T14:36:43.608Z,27.08
2023-02-13T14:39:17.376Z,29.08
2023-02-13T14:41:54.283Z,26.40
2023-02-13T14:44:40.867Z,26.65
2023-02-13T14:47:17.953Z,27.23
2023-02-13T14:49:46.603Z,30.02
2023-02-13T14:52:26.416Z,29.65
2023-02-13T14:54:56.452Z,31.08
2023-02-13T14:57:27.252Z,26.83
2023-02-13T15:00:00.219Z,31.08
2023-02-13T15:02:29.229Z,29.92
2023-02-13T15:04:58.939Z,30.10
2023-02-13T15:07:37.463Z,29.17
2023-02-13T15:10:25.184Z,26.50
2023-02-13T15:13:00.111Z,24.90
2023-02-13T15:15:29.289Z,29.65
2023-02-13T15:18:00.101Z,29.55
2023-02-13T15:20:29.397Z,36.00
2023-02-13T15:22:57.943Z,31.63
2023-02-13T15:25:30.185Z,33.92
2023-02-13T15:27:59.758Z,30.92
2023-02-13T15:30:37.710Z,32.85
2023-02-13T15:33:19.466Z,31.25
2023-02-13T15:35:47.430Z,35.08
2023-02-13T15:38:31.674Z,36.17
2023-02-13T15:41:04.914Z,30.92
2023-02-13T15:43:32.644Z,37.13
2023-02-13T15:46:03.519Z,35.75
2023-02-13T15:48:31.930Z,35.58
2023-02-13T15:51:00.182Z,35.90
2023-02-13T15:53:28.044Z,42.88
2023-02-13T15:55:56.833Z,42.80
2023-02-13T15:58:26.529Z,43.75
2023-02-13T16:00:54.619Z,39.97
2023-02-13T16:03:24.268Z,36.95
2023-02-13T16:05:52.072Z,35.25
2023-02-13T16:08:36.409Z,45.53
2023-02-13T16:11:17.117Z,37.40
2023-02-13T16:14:03.887Z,38.95
2023-02-13T16:16:35.605Z,37.83
2023-02-13T16:19:03.625Z,39.35
2023-02-13T16:21:34.532Z,39.47
2023-02-13T16:24:04.936Z,42.25
2023-02-13T16:26:36.451Z,37.90
2023-02-13T16:29:09.027Z,45.10
2023-02-13T16:31:37.693Z,37.10
2023-02-13T16:34:15.421Z,42.58
2023-02-13T16:36:43.407Z,36.13
2023-02-13T16:39:12.406Z,35.83
2023-02-13T16:41:40.242Z,36.25
2023-02-13T16:44:22.284Z,43.53
2023-02-13T16:47:12.829Z,38.13
2023-02-13T16:49:43.394Z,34.55
2023-02-13T16:52:17.249Z,41.83
2023-02-13T16:54:45.692Z,41.03
2023-02-13T16:57:19.113Z,49.33
2023-02-13T17:02:25.168Z,41.72
2023-02-13T17:04:56.613Z,38.55
2023-02-13T17:07:31.581Z,44.35
2023-02-13T17:10:02.534Z,39.88
2023-02-13T17:12:31.569Z,41.95
2023-02-13T17:14:59.868Z,39.72
2023-02-13T17:17:28.988Z,47.03
2023-02-13T17:19:57.051Z,41.67
2023-02-13T17:22:38.127Z,48.58
2023-02-13T17:25:08.193Z,46.53
2023-02-13T17:27:36.158Z,46.38
2023-02-13T17:30:04.113Z,39.78
2023-02-13T17:32:31.916Z,48.22
2023-02-13T17:34:59.695Z,49.38
2023-02-13T17:37:28.729Z,47.70
2023-02-13T17:39:56.532Z,39.63
2023-02-13T17:42:26.039Z,44.92
2023-02-13T17:44:54.701Z,45.78
2023-02-13T17:47:22.937Z,40.15
2023-02-13T17:49:51.512Z,52.08
2023-02-13T17:52:26.329Z,51.45
2023-02-13T17:54:54.143Z,48.80
2023-02-13T17:57:21.963Z,43.03
2023-02-13T17:59:50.591Z,50.75
2023-02-13T18:02:22.751Z,47.95
2023-02-13T18:04:50.753Z,49.50
2023-02-13T18:07:19.712Z,58.40
2023-02-13T18:09:47.593Z,54.13
2023-02-13T18:12:16.435Z,49.95
2023-02-13T18:14:44.338Z,55.60
2023-02-13T18:17:12.506Z,52.78
2023-02-13T18:19:40.589Z,53.28
2023-02-13T18:22:09.495Z,54.28
2023-02-13T18:24:37.836Z,55.58
2023-02-13T18:27:07.531Z,61.10
2023-02-13T18:29:37.453Z,54.72
2023-02-13T18:32:08.171Z,51.20
2023-02-13T18:34:38.040Z,56.50
2023-02-13T18:37:06.775Z,45.40
2023-02-13T18:39:34.898Z,56.65
2023-02-13T18:42:02.782Z,60.70
2023-02-13T18:44:30.844Z,58.50
2023-02-13T18:47:01.831Z,59.25
2023-02-13T18:49:31.518Z,61.10
2023-02-13T18:52:04.726Z,59.35
2023-02-13T18:54:34.683Z,56.65
2023-02-13T18:57:02.480Z,56.08
2023-02-13T18:59:31.881Z,58.10
2023-02-13T19:01:59.708Z,61.60
2023-02-13T19:04:27.646Z,51.05
2023-02-13T19:06:55.460Z,55.63
2023-02-13T19:09:23.882Z,54.38
2023-02-13T19:11:51.799Z,57.42
2023-02-13T19:14:19.984Z,51.70
2023-02-13T19:16:47.797Z,58.00
2023-02-13T19:19:15.685Z,55.47
2023-02-13T19:21:43.858Z,53.60
2023-02-13T19:24:15.334Z,54.38
2023-02-13T19:26:43.367Z,58.45
2023-02-13T19:29:11.420Z,53.38
2023-02-13T19:31:42.272Z,54.88
2023-02-13T19:34:10.592Z,52.53
2023-02-13T19:36:38.375Z,52.47
2023-02-13T19:39:09.134Z,52.70
2023-02-13T19:41:37.449Z,55.30
2023-02-13T19:44:05.596Z,52.15
2023-02-13T19:46:34.045Z,54.08
2023-02-13T19:49:03.115Z,54.67
2023-02-13T19:51:31.994Z,51.22
2023-02-13T19:54:01.204Z,54.55
2023-02-13T19:56:30.170Z,57.33
2023-02-13T19:58:58.130Z,63.72
2023-02-13T20:01:27.124Z,56.75
2023-02-13T20:03:55.181Z,54.28
2023-02-13T20:06:31.925Z,61.78
2023-02-13T20:09:01.843Z,59.55
2023-02-13T20:11:29.852Z,56.53
2023-02-13T20:14:00.693Z,64.18
2023-02-13T20:16:33.140Z,62.25
2023-02-13T20:19:03.650Z,62.72
2023-02-13T20:21:33.082Z,55.13
2023-02-13T20:24:03.142Z,64.53
2023-02-13T20:26:31.318Z,64.32
2023-02-13T20:29:02.127Z,60.45
2023-02-13T20:31:30.477Z,61.13
2023-02-13T20:33:59.543Z,62.47
2023-02-13T20:36:28.608Z,63.17
2023-02-13T20:38:57.929Z,66.68
2023-02-13T20:41:27.333Z,66.20
2023-02-13T20:43:58.577Z,58.95
2023-02-13T20:46:27.204Z,62.63
2023-02-13T20:48:55.177Z,60.13
2023-02-13T20:51:23.085Z,55.30
2023-02-13T20:53:50.936Z,66.45
2023-02-13T20:56:21.441Z,62.10
2023-02-13T20:58:50.306Z,68.43
2023-02-13T21:01:19.412Z,63.45
2023-02-13T21:03:50.003Z,64.43
2023-02-13T21:06:17.946Z,67.47
2023-02-13T21:08:45.832Z,71.85
2023-02-13T21:11:13.698Z,64.07
2023-02-13T21:13:41.598Z,70.63
2023-02-13T21:16:11.296Z,65.75
2023-02-13T21:18:42.906Z,57.40
2023-02-13T21:21:11.609Z,67.82
2023-02-13T21:23:40.014Z,62.75
2023-02-13T21:26:12.946Z,65.03
2023-02-13T21:28:41.627Z,70.47
2023-02-13T21:31:13.857Z,64.32
2023-02-13T21:33:42.099Z,67.63
2023-02-13T21:36:11.356Z,67.03
2023-02-13T21:38:40.212Z,65.50
2023-02-13T21:41:09.402Z,66.57
2023-02-13T21:43:42.071Z,65.72
2023-02-13T21:46:30.145Z,68.80
2023-02-13T21:48:59.120Z,70.53
2023-02-13T21:51:28.468Z,69.82
2023-02-13T21:53:56.674Z,67.43
2023-02-13T21:56:26.342Z,69.20
2023-02-13T21:58:54.513Z,69.63
2023-02-13T22:01:27.211Z,70.72
2023-02-13T22:03:59.067Z,72.32
2023-02-13T22:06:28.857Z,68.28
2023-02-13T22:09:00.668Z,71.60
2023-02-13T22:11:28.572Z,82.07
2023-02-13T22:13:57.321Z,85.30
2023-02-13T22:16:25.415Z,72.10
2023-02-13T22:18:53.325Z,71.82
2023-02-13T22:21:22.472Z,73.47
2023-02-13T22:23:51.107Z,75.43
2023-02-13T22:26:20.455Z,71.88
2023-02-13T22:28:48.583Z,73.18
2023-02-13T22:31:16.927Z,72.32
2023-02-13T22:33:47.603Z,70.95
2023-02-13T22:36:16.836Z,71.03
2023-02-13T22:38:45.232Z,72.43
2023-02-13T22:41:14.316Z,71.95
2023-02-13T22:43:42.366Z,68.15
2023-02-13T22:46:10.192Z,68.78
2023-02-13T22:48:38.707Z,65.55
2023-02-13T22:51:10.470Z,68.38
2023-02-13T22:53:38.560Z,67.45
2023-02-13T22:56:06.843Z,71.80
2023-02-13T22:58:34.908Z,65.35
2023-02-13T23:01:02.913Z,65.22
2023-02-13T23:03:33.010Z,60.33
2023-02-13T23:06:03.351Z,62.10
2023-02-13T23:08:31.888Z,70.85
2023-02-13T23:11:18.329Z,64.72
2023-02-13T23:13:48.174Z,79.30
2023-02-13T23:16:16.359Z,79.75
2023-02-13T23:18:44.250Z,85.97
2023-02-13T23:21:12.093Z,85.15
2023-02-13T23:23:39.963Z,87.43
2023-02-13T23:26:08.361Z,93.28
2023-02-13T23:28:36.182Z,81.20
2023-02-13T23:31:04.378Z,86.43
2023-02-13T23:33:32.321Z,84.45
2023-02-13T23:36:00.128Z,89.55
2023-02-13T23:38:30.087Z,78.95
2023-02-13T23:40:58.152Z,86.03
2023-02-13T23:43:26.205Z,85.10
2023-02-13T23:45:54.003Z,81.93
2023-02-13T23:48:21.801Z,90.65
2023-02-13T23:50:51.075Z,78.90
2023-02-13T23:53:18.843Z,86.60
2023-02-13T23:55:46.621Z,85.15
2023-02-13T23:58:14.412Z,84.93
